Time;durP1;ratioP1;P1;durP2;ratioP2;P2;SDS_P1;SDS_P2;PMS_P1;PMS_P2;Temp;Humidity;BMP_temperature;BMP_pressure;BME280_temperature;BME280_humidity;BME280_pressure;Samples;Min_cycle;Max_cycle;Signal;HPM_P1;HPM_P2
2023/01/04 00:01:16;;;;;;;1.00;0.90;;;17.80;42.30;;;;;;5025418;28;21001;-60
2023/01/04 00:03:42;;;;;;;0.93;0.90;;;17.80;42.30;;;;;;5025388;28;20218;-62
2023/01/04 00:06:11;;;;;;;0.70;0.70;;;17.80;42.30;;;;;;5022954;28;20444;-60
2023/01/04 00:08:37;;;;;;;1.00;0.90;;;17.80;42.20;;;;;;5024411;28;20475;-62
2023/01/04 00:11:07;;;;;;;0.97;0.80;;;17.80;42.20;;;;;;5025306;28;20415;-62
2023/01/04 00:13:33;;;;;;;1.10;1.00;;;17.80;42.20;;;;;;5024893;28;20447;-60
2023/01/04 00:16:05;;;;;;;0.70;0.70;;;17.80;42.30;;;;;;5024705;28;20426;-62
2023/01/04 00:18:31;;;;;;;1.17;0.90;;;17.80;42.30;;;;;;5026365;28;20976;-60
2023/01/04 00:21:08;;;;;;;0.77;0.70;;;17.80;42.40;;;;;;5023288;28;20423;-64
2023/01/04 00:23:34;;;;;;;0.80;0.70;;;17.80;42.20;;;;;;5024618;28;20510;-63
2023/01/04 00:26:00;;;;;;;0.87;0.80;;;17.80;42.30;;;;;;5025497;28;21174;-62
2023/01/04 00:28:25;;;;;;;0.70;0.63;;;17.80;42.30;;;;;;5024924;28;20223;-61
2023/01/04 00:30:51;;;;;;;0.90;0.70;;;17.80;42.30;;;;;;5022590;28;20223;-61
2023/01/04 00:33:16;;;;;;;0.70;0.70;;;17.80;42.30;;;;;;5025339;28;20801;-60
2023/01/04 00:35:42;;;;;;;0.90;0.80;;;17.80;42.20;;;;;;5023555;28;20587;-64
2023/01/04 00:38:08;;;;;;;1.00;0.83;;;17.80;42.20;;;;;;5024188;28;20245;-60
2023/01/04 00:40:33;;;;;;;0.77;0.73;;;17.80;42.20;;;;;;5026182;28;20531;-64
2023/01/04 00:42:59;;;;;;;0.73;0.73;;;17.80;42.30;;;;;;5024746;28;20624;-61
2023/01/04 00:45:24;;;;;;;1.00;0.90;;;17.80;42.20;;;;;;5024400;28;20590;-60
2023/01/04 00:47:50;;;;;;;0.80;0.80;;;17.80;42.20;;;;;;5024338;28;20709;-61
2023/01/04 00:50:15;;;;;;;0.90;0.80;;;17.80;42.20;;;;;;5023520;28;20573;-60
2023/01/04 00:52:41;;;;;;;0.70;0.70;;;17.80;42.30;;;;;;5000508;28;20230;-60
2023/01/04 00:55:07;;;;;;;0.70;0.70;;;17.80;42.20;;;;;;5023566;28;20640;-61
2023/01/04 00:57:32;;;;;;;0.70;0.70;;;17.80;42.20;;;;;;5023200;28;20642;-60
2023/01/04 00:59:58;;;;;;;0.70;0.70;;;17.80;42.20;;;;;;5023979;28;20547;-62
2023/01/04 01:02:24;;;;;;;0.90;0.80;;;17.80;42.20;;;;;;5021104;28;20230;-61
2023/01/04 01:04:49;;;;;;;0.80;0.80;;;17.80;42.10;;;;;;5005822;28;20231;-60
2023/01/04 01:07:15;;;;;;;0.70;0.70;;;17.80;42.10;;;;;;5023307;28;20214;-60
2023/01/04 01:09:40;;;;;;;0.70;0.70;;;17.80;42.10;;;;;;5024306;28;20223;-61
2023/01/04 01:12:06;;;;;;;0.80;0.80;;;17.80;42.10;;;;;;5022780;28;20226;-63
2023/01/04 01:14:32;;;;;;;0.77;0.70;;;17.80;42.20;;;;;;5024775;28;20219;-60
2023/01/04 01:16:57;;;;;;;0.87;0.70;;;17.80;42.10;;;;;;5023570;28;20245;-61
2023/01/04 01:19:25;;;;;;;1.00;0.90;;;17.70;42.00;;;;;;5024004;28;20302;-60
2023/01/04 01:21:50;;;;;;;0.70;0.70;;;17.80;42.10;;;;;;5023661;28;20222;-61
2023/01/04 01:24:18;;;;;;;0.90;0.90;;;17.80;42.10;;;;;;5024684;28;20419;-60
2023/01/04 01:26:44;;;;;;;1.00;0.80;;;17.80;42.10;;;;;;5023641;28;20257;-61
2023/01/04 01:29:09;;;;;;;0.70;0.70;;;17.80;42.10;;;;;;5023918;28;20438;-60
2023/01/04 01:31:35;;;;;;;0.77;0.70;;;17.80;42.10;;;;;;5022603;28;20806;-61
2023/01/04 01:34:01;;;;;;;0.80;0.70;;;17.80;42.10;;;;;;5026499;28;20227;-60
2023/01/04 01:36:27;;;;;;;0.90;0.70;;;17.80;42.10;;;;;;5024027;28;20233;-60
2023/01/04 01:38:53;;;;;;;0.80;0.70;;;17.80;42.10;;;;;;5024844;28;20509;-63
2023/01/04 01:41:25;;;;;;;0.87;0.80;;;17.80;42.10;;;;;;5022186;28;20663;-61
2023/01/04 01:43:53;;;;;;;0.80;0.60;;;17.80;42.00;;;;;;4999093;28;21055;-60
2023/01/04 01:46:34;;;;;;;0.77;0.60;;;17.80;42.10;;;;;;5021430;28;20915;-60
2023/01/04 01:49:11;;;;;;;2.17;0.70;;;17.80;42.10;;;;;;5023994;28;20456;-62
2023/01/04 01:51:37;;;;;;;0.90;0.70;;;17.80;42.10;;;;;;5022443;28;20457;-63
2023/01/04 01:54:11;;;;;;;0.80;0.80;;;17.80;42.10;;;;;;5024479;28;20444;-61
2023/01/04 01:56:40;;;;;;;0.80;0.70;;;17.80;42.10;;;;;;5019668;28;20419;-61
2023/01/04 01:59:08;;;;;;;0.80;0.67;;;17.80;42.10;;;;;;5022141;28;20466;-60
2023/01/04 02:01:33;;;;;;;0.77;0.70;;;17.80;42.00;;;;;;5021992;28;20448;-61
2023/01/04 02:04:00;;;;;;;0.70;0.70;;;17.80;42.10;;;;;;5022237;28;20422;-61
2023/01/04 02:06:30;;;;;;;0.80;0.60;;;17.70;41.90;;;;;;5019935;28;20617;-60
2023/01/04 02:08:57;;;;;;;0.70;0.70;;;17.80;42.10;;;;;;5016883;28;20956;-61
2023/01/04 02:11:22;;;;;;;0.80;0.70;;;17.70;41.90;;;;;;5022383;28;20453;-60
2023/01/04 02:16:56;;;;;;;0.83;0.70;;;17.80;42.00;;;;;;5022430;28;20635;-60
2023/01/04 02:20:02;;;;;;;0.80;0.60;;;17.70;41.90;;;;;;5023086;28;20473;-60
2023/01/04 02:22:53;;;;;;;0.97;0.80;;;17.70;41.90;;;;;;5021901;28;20476;-60
2023/01/04 02:25:24;;;;;;;0.80;0.80;;;17.70;41.90;;;;;;5021311;28;20435;-64
2023/01/04 02:28:08;;;;;;;0.80;0.70;;;17.80;42.00;;;;;;5013359;28;20466;-62
2023/01/04 02:31:10;;;;;;;0.97;0.63;;;17.70;41.90;;;;;;5023321;28;20987;-60
2023/01/04 02:33:50;;;;;;;1.00;0.90;;;17.70;41.90;;;;;;5022643;28;20430;-62
2023/01/04 02:36:53;;;;;;;0.83;0.80;;;17.70;41.90;;;;;;5021875;28;20937;-61
2023/01/04 02:40:02;;;;;;;0.70;0.70;;;17.70;41.90;;;;;;5003782;28;20445;-61
2023/01/04 02:45:43;;;;;;;0.60;0.60;;;17.70;41.90;;;;;;5022702;28;20528;-61
2023/01/04 02:50:56;;;;;;;0.70;0.70;;;17.70;41.90;;;;;;5020578;28;20434;-61
2023/01/04 02:53:33;;;;;;;1.10;0.70;;;17.70;41.90;;;;;;5021752;28;20445;-60
2023/01/04 02:56:08;;;;;;;0.70;0.70;;;17.70;41.90;;;;;;5021498;28;20421;-60
2023/01/04 02:59:01;;;;;;;0.67;0.60;;;17.70;41.90;;;;;;5021718;28;20487;-61
2023/01/04 03:07:50;;;;;;;0.77;0.67;;;17.70;41.90;;;;;;5021144;28;20444;-62
2023/01/04 03:10:39;;;;;;;0.77;0.70;;;17.70;41.90;;;;;;5010135;28;20442;-60
2023/01/04 03:13:22;;;;;;;0.77;0.70;;;17.70;41.90;;;;;;5020347;28;20427;-60
2023/01/04 03:15:55;;;;;;;0.70;0.60;;;17.70;41.90;;;;;;5021023;28;20427;-61
2023/01/04 03:18:25;;;;;;;0.70;0.60;;;17.70;41.80;;;;;;5021581;28;20435;-60
2023/01/04 03:20:54;;;;;;;0.83;0.80;;;17.70;41.80;;;;;;5020805;28;21011;-59
2023/01/04 03:37:36;;;;;;;0.60;0.60;;;17.70;41.90;;;;;;5021420;28;20422;-60
2023/01/04 03:49:43;;;;;;;0.70;0.67;;;17.70;41.90;;;;;;5024798;28;20473;-60
2023/01/04 03:52:11;;;;;;;0.70;0.60;;;17.70;41.90;;;;;;5025156;28;20433;-61
2023/01/04 03:54:40;;;;;;;0.70;0.70;;;17.70;41.80;;;;;;5027070;28;20431;-60
2023/01/04 03:57:07;;;;;;;0.80;0.57;;;17.70;41.80;;;;;;5023145;28;20509;-63
2023/01/04 03:59:39;;;;;;;0.90;0.60;;;17.70;41.80;;;;;;5026209;28;20478;-63
2023/01/04 04:02:09;;;;;;;0.80;0.60;;;17.70;41.80;;;;;;5023875;28;20452;-63
2023/01/04 04:10:03;;;;;;;0.60;0.60;;;17.70;41.80;;;;;;5024659;28;20521;-62
2023/01/04 04:12:29;;;;;;;0.67;0.57;;;17.70;41.70;;;;;;5024054;28;20448;-61
2023/01/04 04:14:54;;;;;;;0.60;0.50;;;17.70;41.70;;;;;;5025544;28;20726;-60
2023/01/04 04:17:20;;;;;;;0.60;0.60;;;17.70;41.80;;;;;;5024299;28;20218;-63
2023/01/04 04:19:45;;;;;;;0.70;0.60;;;17.70;41.80;;;;;;5025294;28;20210;-61
2023/01/04 04:22:11;;;;;;;0.70;0.60;;;17.70;41.80;;;;;;5025249;28;20219;-61
2023/01/04 04:24:36;;;;;;;0.73;0.60;;;17.70;41.70;;;;;;5024709;28;20260;-61
2023/01/04 04:27:02;;;;;;;0.60;0.60;;;17.70;41.80;;;;;;5025998;28;20265;-62
2023/01/04 04:29:27;;;;;;;0.97;0.87;;;17.70;41.70;;;;;;5025696;28;20582;-62
2023/01/04 04:31:53;;;;;;;0.67;0.50;;;17.70;41.70;;;;;;5024452;28;21511;-62
2023/01/04 04:34:18;;;;;;;0.60;0.50;;;17.70;41.70;;;;;;5025549;28;20207;-60
2023/01/04 04:36:44;;;;;;;0.70;0.60;;;17.70;41.70;;;;;;5023885;28;20238;-60
2023/01/04 04:39:10;;;;;;;0.73;0.60;;;17.70;41.70;;;;;;5025095;28;20218;-60
2023/01/04 04:41:42;;;;;;;0.60;0.53;;;17.70;41.70;;;;;;5024902;28;20219;-63
2023/01/04 04:44:10;;;;;;;0.63;0.60;;;17.70;41.70;;;;;;5024272;28;20538;-60
2023/01/04 04:46:36;;;;;;;0.70;0.60;;;17.70;41.60;;;;;;5025068;28;20571;-64
2023/01/04 04:49:02;;;;;;;0.60;0.60;;;17.70;41.70;;;;;;5024553;28;20526;-59
2023/01/04 04:51:27;;;;;;;0.90;0.70;;;17.70;41.70;;;;;;5023752;28;20665;-60
2023/01/04 04:53:53;;;;;;;0.60;0.50;;;17.70;41.70;;;;;;5022979;28;20448;-64
2023/01/04 04:56:19;;;;;;;0.60;0.50;;;17.70;41.70;;;;;;5024443;28;20218;-59
2023/01/04 04:58:44;;;;;;;0.70;0.60;;;17.80;41.70;;;;;;5007003;28;20309;-60
2023/01/04 05:01:10;;;;;;;0.80;0.60;;;17.80;41.60;;;;;;5020389;28;20261;-61
2023/01/04 05:03:35;;;;;;;0.70;0.60;;;17.80;41.70;;;;;;5023498;28;20623;-60
2023/01/04 05:06:01;;;;;;;0.77;0.60;;;17.80;41.60;;;;;;5023631;28;20210;-60
2023/01/04 05:08:27;;;;;;;0.60;0.50;;;17.80;41.60;;;;;;5023215;28;20310;-60
2023/01/04 05:10:53;;;;;;;0.60;0.50;;;17.80;41.60;;;;;;5023580;28;20223;-61
2023/01/04 05:13:18;;;;;;;0.70;0.60;;;17.80;41.60;;;;;;5024402;28;20983;-60
2023/01/04 05:15:47;;;;;;;0.70;0.70;;;17.80;41.50;;;;;;5023573;28;20211;-60
2023/01/04 05:18:14;;;;;;;0.80;0.60;;;17.80;41.50;;;;;;5024304;28;20718;-65
2023/01/04 05:20:40;;;;;;;0.60;0.60;;;17.80;41.50;;;;;;5022405;28;20448;-60
2023/01/04 05:23:07;;;;;;;0.60;0.50;;;17.80;41.50;;;;;;5024846;28;20415;-62
2023/01/04 05:25:33;;;;;;;0.70;0.60;;;17.80;41.50;;;;;;5024082;28;20590;-60
2023/01/04 05:27:59;;;;;;;0.70;0.60;;;17.80;41.50;;;;;;5021760;28;20448;-60
2023/01/04 05:33:09;;;;;;;0.60;0.60;;;17.90;41.60;;;;;;5022750;28;20941;-61
2023/01/04 05:35:34;;;;;;;1.23;0.60;;;17.90;41.50;;;;;;5023544;28;20480;-61
2023/01/04 05:38:00;;;;;;;0.70;0.57;;;17.90;41.50;;;;;;5024994;28;20364;-59
2023/01/04 05:40:26;;;;;;;0.70;0.60;;;17.90;41.50;;;;;;5023328;28;20261;-62
2023/01/04 05:42:51;;;;;;;0.70;0.50;;;17.90;41.50;;;;;;5022473;28;20226;-59
2023/01/04 05:45:19;;;;;;;0.60;0.50;;;17.90;41.40;;;;;;5021719;28;20368;-63
2023/01/04 05:47:48;;;;;;;0.60;0.50;;;17.90;41.50;;;;;;5021857;28;20230;-62
2023/01/04 05:50:13;;;;;;;0.60;0.50;;;17.90;41.40;;;;;;5022985;28;20904;-61
2023/01/04 05:52:39;;;;;;;0.60;0.47;;;17.90;41.50;;;;;;5024806;28;20419;-65
2023/01/04 05:55:05;;;;;;;0.60;0.50;;;17.90;41.40;;;;;;5023899;28;20301;-61
2023/01/04 05:57:30;;;;;;;0.60;0.50;;;17.90;41.40;;;;;;5022000;28;20223;-62
2023/01/04 05:59:56;;;;;;;0.60;0.57;;;17.90;41.50;;;;;;5024951;28;20519;-60
2023/01/04 06:02:24;;;;;;;0.57;0.47;;;17.90;41.50;;;;;;5022476;28;20218;-59
2023/01/04 06:04:50;;;;;;;0.87;0.60;;;17.90;41.40;;;;;;5019549;28;20219;-61
2023/01/04 06:07:16;;;;;;;0.60;0.50;;;17.90;41.40;;;;;;5022688;28;20711;-60
2023/01/04 06:09:42;;;;;;;0.60;0.50;;;17.90;41.40;;;;;;5022413;28;20551;-60
2023/01/04 06:12:08;;;;;;;0.60;0.50;;;17.90;41.40;;;;;;5022525;28;20608;-60
2023/01/04 06:14:34;;;;;;;0.60;0.40;;;17.90;41.40;;;;;;5023930;28;20526;-64
2023/01/04 06:17:00;;;;;;;0.60;0.50;;;17.90;41.40;;;;;;5022705;28;20728;-60
2023/01/04 06:19:25;;;;;;;0.50;0.50;;;17.90;41.40;;;;;;5022029;28;20219;-60
2023/01/04 06:21:51;;;;;;;0.60;0.43;;;17.90;41.40;;;;;;5022996;28;20667;-60
2023/01/04 06:24:17;;;;;;;0.60;0.43;;;17.90;41.40;;;;;;5022828;28;20268;-63
2023/01/04 06:26:43;;;;;;;0.60;0.50;;;17.90;41.40;;;;;;5022112;28;20288;-60
2023/01/04 06:29:08;;;;;;;0.63;0.50;;;17.90;41.30;;;;;;5022760;28;20233;-60
2023/01/04 06:31:34;;;;;;;0.60;0.47;;;17.90;41.30;;;;;;5023247;28;20241;-59
2023/01/04 06:34:00;;;;;;;0.70;0.50;;;17.90;41.40;;;;;;5021174;28;20215;-61
2023/01/04 06:36:26;;;;;;;0.70;0.50;;;17.90;41.30;;;;;;5022746;28;20230;-65
2023/01/04 06:38:51;;;;;;;0.60;0.50;;;17.90;41.30;;;;;;5022191;28;20229;-60
2023/01/04 06:41:17;;;;;;;0.60;0.60;;;17.90;41.30;;;;;;5021595;28;20585;-61
2023/01/04 06:43:43;;;;;;;0.60;0.50;;;17.90;41.20;;;;;;5022123;28;20622;-61
2023/01/04 06:46:08;;;;;;;0.60;0.50;;;17.90;41.30;;;;;;5022624;28;20241;-62
2023/01/04 06:48:34;;;;;;;0.63;0.50;;;17.90;41.20;;;;;;5023424;28;20226;-62
2023/01/04 06:50:59;;;;;;;0.60;0.50;;;17.90;41.20;;;;;;5022899;28;20233;-60
2023/01/04 06:53:25;;;;;;;0.60;0.50;;;17.90;41.20;;;;;;5020763;28;20226;-61
2023/01/04 06:55:50;;;;;;;0.70;0.60;;;17.90;41.20;;;;;;5022306;28;20215;-60
2023/01/04 06:58:16;;;;;;;0.60;0.50;;;17.90;41.20;;;;;;5022743;28;20230;-60
2023/01/04 07:00:42;;;;;;;0.70;0.50;;;17.90;41.20;;;;;;5022840;28;20219;-65
2023/01/04 07:03:08;;;;;;;0.73;0.60;;;17.90;41.10;;;;;;5020270;28;20211;-60
2023/01/04 07:05:34;;;;;;;0.80;0.50;;;18.00;41.20;;;;;;5022669;28;20223;-59
2023/01/04 07:08:00;;;;;;;0.50;0.40;;;18.00;41.20;;;;;;5023531;28;20501;-59
2023/01/04 07:10:26;;;;;;;0.60;0.53;;;18.00;41.20;;;;;;5021259;28;20564;-65
2023/01/04 07:12:52;;;;;;;0.70;0.50;;;17.90;41.10;;;;;;5021667;28;20448;-61
2023/01/04 07:15:17;;;;;;;0.70;0.50;;;17.90;41.00;;;;;;5023842;28;20219;-61
2023/01/04 07:17:45;;;;;;;0.50;0.40;;;18.00;41.10;;;;;;5026433;28;20234;-60
2023/01/04 07:20:11;;;;;;;0.70;0.50;;;18.00;41.10;;;;;;5025693;28;20229;-60
2023/01/04 07:22:36;;;;;;;0.60;0.50;;;18.00;41.10;;;;;;5026086;28;20422;-60
2023/01/04 07:25:02;;;;;;;0.60;0.50;;;18.00;41.10;;;;;;5026776;28;20223;-60
2023/01/04 07:27:27;;;;;;;0.60;0.50;;;17.90;41.00;;;;;;5025340;28;20238;-61
2023/01/04 07:29:53;;;;;;;0.80;0.50;;;18.00;41.00;;;;;;5025637;28;20227;-60
2023/01/04 07:32:18;;;;;;;0.60;0.43;;;18.00;41.00;;;;;;5024021;28;20927;-60
2023/01/04 07:34:44;;;;;;;0.60;0.40;;;18.00;41.10;;;;;;5026010;28;20234;-65
2023/01/04 07:37:09;;;;;;;0.53;0.50;;;18.00;41.00;;;;;;5025827;28;20268;-61
2023/01/04 07:39:35;;;;;;;0.60;0.50;;;18.00;41.00;;;;;;5027247;28;20227;-61
2023/01/04 07:42:00;;;;;;;0.60;0.50;;;18.00;41.00;;;;;;5024981;28;20222;-60
2023/01/04 07:44:27;;;;;;;0.50;0.50;;;18.00;41.00;;;;;;5025288;28;20748;-60
2023/01/04 07:46:53;;;;;;;0.57;0.43;;;18.00;40.90;;;;;;5025685;28;20705;-62
2023/01/04 07:49:18;;;;;;;0.60;0.50;;;18.00;40.90;;;;;;5024929;28;20524;-59
2023/01/04 07:51:46;;;;;;;0.60;0.50;;;18.00;40.90;;;;;;5025401;28;20452;-60
2023/01/04 07:54:12;;;;;;;0.60;0.50;;;18.00;40.90;;;;;;5026819;28;20222;-60
2023/01/04 07:56:37;;;;;;;0.90;0.50;;;18.00;41.70;;;;;;5024245;28;20430;-62
2023/01/04 07:59:08;;;;;;;0.60;0.40;;;18.00;40.90;;;;;;5026106;28;20359;-65
2023/01/04 08:01:34;;;;;;;0.60;0.60;;;18.00;40.90;;;;;;5025129;28;20309;-61
2023/01/04 08:04:00;;;;;;;0.70;0.50;;;18.00;40.90;;;;;;5024207;28;20916;-61
2023/01/04 08:06:25;;;;;;;0.50;0.50;;;18.00;40.90;;;;;;5022270;28;20429;-62
2023/01/04 08:08:51;;;;;;;0.60;0.40;;;18.00;40.90;;;;;;5024788;28;20701;-60
2023/01/04 08:11:21;;;;;;;0.60;0.40;;;18.00;40.90;;;;;;5021993;28;20221;-60
2023/01/04 08:13:47;;;;;;;0.60;0.40;;;18.00;40.90;;;;;;5024787;28;20222;-60
2023/01/04 08:16:26;;;;;;;0.60;0.47;;;18.00;40.80;;;;;;5025220;28;21270;-59
2023/01/04 08:18:57;;;;;;;0.50;0.47;;;18.00;40.90;;;;;;5023106;28;20430;-60
2023/01/04 08:21:24;;;;;;;2.00;0.67;;;18.00;40.80;;;;;;5025415;28;20430;-60
2023/01/04 08:23:50;;;;;;;0.50;0.50;;;18.00;40.90;;;;;;5026328;28;20532;-60
2023/01/04 08:26:16;;;;;;;0.60;0.40;;;18.00;40.80;;;;;;5023391;28;20435;-65
2023/01/04 08:28:42;;;;;;;0.60;0.50;;;17.90;40.80;;;;;;5024923;28;20509;-60
2023/01/04 08:31:12;;;;;;;0.60;0.50;;;18.00;40.90;;;;;;5024523;28;20435;-62
2023/01/04 08:33:38;;;;;;;0.50;0.40;;;18.00;40.90;;;;;;5022449;28;20227;-65
2023/01/04 08:36:15;;;;;;;0.60;0.47;;;18.00;40.90;;;;;;5024882;28;20972;-62
2023/01/04 08:38:41;;;;;;;0.80;0.50;;;17.90;40.70;;;;;;5024193;28;21017;-60
2023/01/04 08:41:07;;;;;;;0.70;0.50;;;18.00;40.80;;;;;;5024492;28;20523;-60
2023/01/04 08:43:34;;;;;;;0.60;0.50;;;18.00;40.90;;;;;;5024796;28;20241;-60
2023/01/04 08:46:00;;;;;;;0.60;0.40;;;18.00;40.90;;;;;;5023953;28;20261;-65
2023/01/04 08:48:25;;;;;;;0.57;0.47;;;17.90;40.70;;;;;;5023907;28;20458;-60
2023/01/04 08:50:51;;;;;;;0.60;0.50;;;17.90;40.80;;;;;;5023824;28;20237;-60
2023/01/04 08:53:16;;;;;;;0.60;0.50;;;17.90;40.80;;;;;;5023208;28;20218;-60
2023/01/04 08:55:48;;;;;;;0.60;0.50;;;18.00;40.90;;;;;;5023895;28;20215;-62
2023/01/04 08:58:14;;;;;;;0.60;0.50;;;18.00;40.90;;;;;;5024271;28;20562;-61
2023/01/04 09:00:39;;;;;;;0.60;0.50;;;18.00;40.90;;;;;;5024154;28;20505;-62
2023/01/04 09:03:05;;;;;;;0.60;0.40;;;18.00;41.00;;;;;;5024667;28;20674;-61
2023/01/04 09:05:31;;;;;;;0.60;0.50;;;17.90;40.80;;;;;;5024785;28;20240;-63
2023/01/04 09:07:58;;;;;;;0.60;0.40;;;17.90;40.80;;;;;;5024012;28;20427;-62
2023/01/04 09:10:24;;;;;;;0.60;0.40;;;18.00;40.90;;;;;;5022541;28;20237;-61
2023/01/04 09:12:50;;;;;;;0.63;0.50;;;17.90;40.90;;;;;;5025361;28;20431;-61
2023/01/04 09:15:16;;;;;;;0.60;0.50;;;17.90;40.80;;;;;;5024689;28;20584;-63
2023/01/04 09:17:41;;;;;;;0.70;0.50;;;17.90;40.80;;;;;;5024239;28;20238;-61
2023/01/04 09:20:07;;;;;;;0.60;0.40;;;17.90;40.80;;;;;;5021927;28;20942;-60
2023/01/04 09:22:33;;;;;;;0.60;0.50;;;17.90;40.90;;;;;;5024178;28;20613;-60
2023/01/04 09:24:58;;;;;;;0.60;0.50;;;17.90;40.90;;;;;;5024515;28;20246;-60
2023/01/04 09:27:24;;;;;;;0.60;0.50;;;17.90;40.90;;;;;;5022506;28;20573;-63
2023/01/04 09:29:50;;;;;;;0.50;0.40;;;17.90;40.90;;;;;;5023874;28;20231;-60
2023/01/04 09:32:15;;;;;;;0.60;0.57;;;17.90;40.90;;;;;;5023988;28;20223;-61
2023/01/04 09:34:41;;;;;;;0.60;0.50;;;17.90;40.80;;;;;;5022959;28;20249;-61
2023/01/04 09:37:07;;;;;;;0.60;0.50;;;17.90;40.90;;;;;;5023224;28;20226;-64
2023/01/04 09:39:32;;;;;;;0.60;0.50;;;17.90;40.80;;;;;;5024730;28;20234;-61
2023/01/04 09:42:02;;;;;;;0.60;0.50;;;17.90;40.90;;;;;;5022979;28;20237;-60
2023/01/04 09:44:42;;;;;;;0.60;0.50;;;17.90;40.90;;;;;;5023562;28;20239;-62
2023/01/04 09:47:23;;;;;;;1.93;0.50;;;17.90;41.00;;;;;;5023143;28;20598;-61
2023/01/04 09:49:54;;;;;;;0.60;0.40;;;17.90;40.90;;;;;;5026669;28;20446;-59
2023/01/04 09:52:53;;;;;;;0.60;0.50;;;17.90;40.90;;;;;;5022715;28;20425;-60
2023/01/04 09:55:41;;;;;;;0.60;0.43;;;17.90;40.90;;;;;;5021190;28;20426;-60
2023/01/04 09:58:28;;;;;;;0.70;0.50;;;17.90;40.90;;;;;;5021954;28;20418;-61
2023/01/04 10:01:06;;;;;;;0.70;0.70;;;17.90;41.00;;;;;;5022674;28;20811;-60
2023/01/04 10:03:37;;;;;;;0.60;0.47;;;17.90;41.00;;;;;;5023143;28;20426;-60
2023/01/04 10:06:05;;;;;;;0.60;0.47;;;17.90;40.90;;;;;;5022640;28;20509;-60
2023/01/04 10:08:31;;;;;;;0.60;0.50;;;17.90;41.00;;;;;;5022183;28;20427;-60
2023/01/04 10:11:21;;;;;;;0.70;0.50;;;17.90;41.00;;;;;;5023434;28;20820;-65
2023/01/04 10:14:03;;;;;;;0.80;0.40;;;17.90;41.00;;;;;;5020857;28;20780;-62
2023/01/04 10:17:12;;;;;;;0.57;0.40;;;17.90;41.00;;;;;;5021273;28;20422;-60
2023/01/04 10:19:49;;;;;;;0.60;0.50;;;17.90;41.00;;;;;;4974297;28;20783;-61
2023/01/04 10:22:31;;;;;;;0.60;0.40;;;17.90;41.00;;;;;;5022211;28;21064;-60
2023/01/04 10:25:22;;;;;;;0.60;0.50;;;17.90;41.00;;;;;;5021929;28;20546;-62
2023/01/04 10:28:12;;;;;;;0.60;0.50;;;17.90;41.10;;;;;;5023067;28;20441;-60
2023/01/04 10:30:49;;;;;;;0.60;0.47;;;17.90;41.10;;;;;;5021998;28;20887;-60
2023/01/04 10:33:32;;;;;;;0.60;0.50;;;17.90;41.10;;;;;;5021231;28;20549;-60
2023/01/04 10:35:58;;;;;;;0.60;0.50;;;17.90;41.10;;;;;;5020816;28;20535;-60
2023/01/04 10:38:31;;;;;;;0.60;0.50;;;17.90;41.10;;;;;;5021694;28;20454;-60
2023/01/04 10:41:03;;;;;;;0.60;0.40;;;17.90;41.10;;;;;;5020334;28;21059;-60
2023/01/04 10:43:35;;;;;;;0.60;0.50;;;17.90;41.10;;;;;;5020794;28;20440;-61
2023/01/04 10:46:04;;;;;;;0.60;0.40;;;17.90;41.10;;;;;;5020023;28;20467;-64
2023/01/04 10:49:16;;;;;;;0.60;0.50;;;17.90;41.20;;;;;;5022089;28;20435;-61
2023/01/04 10:51:58;;;;;;;0.60;0.50;;;17.90;41.10;;;;;;5019348;28;20471;-61
2023/01/04 10:54:29;;;;;;;0.70;0.50;;;17.90;41.20;;;;;;5027856;28;20506;-60
2023/01/04 10:57:06;;;;;;;0.70;0.60;;;17.90;41.20;;;;;;5026028;28;20459;-62
2023/01/04 10:59:53;;;;;;;0.60;0.50;;;17.90;41.10;;;;;;5026684;28;20794;-60
2023/01/04 11:02:44;;;;;;;0.60;0.40;;;17.90;41.20;;;;;;5025898;28;20435;-60
2023/01/04 11:05:26;;;;;;;0.50;0.40;;;17.90;41.10;;;;;;5024434;28;21128;-61
2023/01/04 11:08:15;;;;;;;0.60;0.50;;;17.90;41.10;;;;;;5026163;28;20460;-61
2023/01/04 11:10:51;;;;;;;0.60;0.43;;;17.90;41.20;;;;;;5025162;28;20554;-62
2023/01/04 11:13:17;;;;;;;0.60;0.50;;;17.90;41.20;;;;;;5026165;28;20443;-60
2023/01/04 11:15:44;;;;;;;0.60;0.40;;;17.90;41.20;;;;;;5026146;28;20450;-65
2023/01/04 11:18:12;;;;;;;0.60;0.50;;;17.90;41.20;;;;;;5025217;28;20219;-62
2023/01/04 11:20:38;;;;;;;0.50;0.40;;;17.90;41.20;;;;;;5026082;28;20434;-60
2023/01/04 11:23:11;;;;;;;0.60;0.40;;;17.90;41.20;;;;;;5027264;28;20440;-60
2023/01/04 11:25:47;;;;;;;0.60;0.60;;;17.90;41.20;;;;;;5024510;28;20314;-62
2023/01/04 11:28:21;;;;;;;0.50;0.40;;;17.90;41.30;;;;;;5025794;28;20512;-61
2023/01/04 11:30:55;;;;;;;0.57;0.50;;;17.90;41.20;;;;;;5024169;28;20430;-60
2023/01/04 11:33:23;;;;;;;0.60;0.50;;;17.90;41.30;;;;;;5026767;28;20464;-61
2023/01/04 11:35:57;;;;;;;0.60;0.50;;;17.90;41.20;;;;;;5026153;28;20513;-59
2023/01/04 11:38:28;;;;;;;0.60;0.40;;;17.90;41.20;;;;;;5026008;28;21024;-60
2023/01/04 11:40:54;;;;;;;0.60;0.50;;;17.90;41.20;;;;;;5026822;28;20430;-60
2023/01/04 11:43:21;;;;;;;0.60;0.50;;;17.90;41.20;;;;;;5023603;28;20945;-60
2023/01/04 11:46:00;;;;;;;0.50;0.40;;;17.90;41.20;;;;;;5018263;28;20234;-61
2023/01/04 11:48:36;;;;;;;0.60;0.50;;;17.90;41.10;;;;;;5023823;28;20488;-65
2023/01/04 11:51:01;;;;;;;0.60;0.50;;;17.90;41.20;;;;;;5025262;28;20857;-61
2023/01/04 11:53:31;;;;;;;0.60;0.50;;;17.90;41.20;;;;;;5026772;28;20414;-60
2023/01/04 11:56:14;;;;;;;0.60;0.50;;;17.90;41.20;;;;;;5023665;28;20320;-61
2023/01/04 11:58:40;;;;;;;0.60;0.43;;;17.90;41.20;;;;;;5024222;28;20426;-60
2023/01/04 12:01:19;;;;;;;0.60;0.40;;;17.90;41.20;;;;;;5023851;28;20440;-60
2023/01/04 12:03:45;;;;;;;0.63;0.50;;;17.90;41.20;;;;;;5022954;28;20989;-61
2023/01/04 12:06:23;;;;;;;0.60;0.40;;;17.90;41.30;;;;;;5025174;28;20456;-61
2023/01/04 12:08:49;;;;;;;0.50;0.40;;;17.90;41.20;;;;;;5024075;28;20233;-65
2023/01/04 12:11:33;;;;;;;0.60;0.40;;;17.90;41.20;;;;;;5026161;28;20452;-62
2023/01/04 12:13:59;;;;;;;0.60;0.50;;;17.90;41.30;;;;;;5022666;28;20313;-65
2023/01/04 12:16:38;;;;;;;1.37;0.50;;;17.90;41.30;;;;;;5005259;28;20982;-61
2023/01/04 12:19:03;;;;;;;0.60;0.50;;;17.90;41.30;;;;;;5023758;28;20529;-60
2023/01/04 12:21:33;;;;;;;0.50;0.40;;;17.90;41.30;;;;;;5024148;28;20510;-60
2023/01/04 12:23:58;;;;;;;0.60;0.43;;;17.90;41.30;;;;;;5024027;28;20288;-61
2023/01/04 12:26:24;;;;;;;0.50;0.40;;;17.90;41.30;;;;;;5025810;28;20918;-60
2023/01/04 12:29:23;;;;;;;0.60;0.50;;;17.90;41.30;;;;;;5024051;28;20222;-61
2023/01/04 12:32:16;;;;;;;0.60;0.50;;;17.90;41.30;;;;;;5023554;28;20260;-63
2023/01/04 12:34:44;;;;;;;0.60;0.50;;;17.90;41.30;;;;;;5023556;28;20775;-61
2023/01/04 12:37:30;;;;;;;0.60;0.50;;;17.90;41.40;;;;;;5021256;28;20454;-60
2023/01/04 12:39:56;;;;;;;0.60;0.40;;;17.90;41.30;;;;;;5021897;28;20773;-60
2023/01/04 12:42:25;;;;;;;0.60;0.40;;;17.90;41.40;;;;;;5024167;28;20471;-59
2023/01/04 12:44:51;;;;;;;0.60;0.47;;;17.90;41.30;;;;;;5023165;28;20297;-60
2023/01/04 12:50:15;;;;;;;0.60;0.50;;;17.90;41.30;;;;;;5024726;28;20284;-60
2023/01/04 12:52:53;;;;;;;0.60;0.40;;;17.90;41.30;;;;;;5023158;28;20978;-63
2023/01/04 12:55:31;;;;;;;0.60;0.50;;;17.90;41.40;;;;;;5022433;28;20955;-61
2023/01/04 12:58:17;;;;;;;0.60;0.50;;;17.90;41.30;;;;;;5023019;28;20419;-61
2023/01/04 13:00:48;;;;;;;0.60;0.40;;;17.90;41.40;;;;;;5005942;28;20426;-60
2023/01/04 13:03:14;;;;;;;0.60;0.40;;;17.90;41.40;;;;;;5022817;28;20443;-61
2023/01/04 13:05:46;;;;;;;0.60;0.50;;;17.90;41.40;;;;;;5024146;28;20481;-61
2023/01/04 13:08:15;;;;;;;0.50;0.40;;;17.90;41.40;;;;;;5022877;28;20690;-61
2023/01/04 13:10:53;;;;;;;0.60;0.50;;;17.90;41.40;;;;;;5023276;28;20547;-62
2023/01/04 13:13:37;;;;;;;0.60;0.50;;;17.90;41.40;;;;;;5023098;28;20504;-62
2023/01/04 13:16:02;;;;;;;0.50;0.40;;;17.90;41.40;;;;;;5023937;28;20501;-60
2023/01/04 13:18:33;;;;;;;0.57;0.50;;;17.90;41.40;;;;;;5024123;28;20498;-61
2023/01/04 13:21:10;;;;;;;0.50;0.40;;;17.90;41.40;;;;;;5022751;28;20578;-60
2023/01/04 13:23:37;;;;;;;0.60;0.47;;;17.90;41.40;;;;;;5023368;28;20513;-61
2023/01/04 13:26:30;;;;;;;0.60;0.40;;;17.90;41.40;;;;;;5022982;28;20435;-60
2023/01/04 13:29:20;;;;;;;0.50;0.40;;;17.90;41.40;;;;;;5023427;28;20914;-61
2023/01/04 13:31:58;;;;;;;0.80;0.53;;;17.90;41.40;;;;;;5023292;28;20467;-62
2023/01/04 13:34:34;;;;;;;0.60;0.50;;;17.90;41.40;;;;;;5022622;28;20479;-61
2023/01/04 13:37:09;;;;;;;0.60;0.43;;;17.90;41.50;;;;;;5022738;28;20418;-60
2023/01/04 13:39:48;;;;;;;0.60;0.50;;;17.90;41.40;;;;;;5022920;28;21042;-63
2023/01/04 13:42:23;;;;;;;0.50;0.40;;;17.90;41.40;;;;;;5021834;28;20436;-60
2023/01/04 13:45:16;;;;;;;0.60;0.50;;;17.90;41.40;;;;;;5023182;28;20468;-61
2023/01/04 13:47:42;;;;;;;0.50;0.40;;;17.90;41.40;;;;;;5021837;28;20533;-61
2023/01/04 13:50:28;;;;;;;0.60;0.50;;;17.90;41.40;;;;;;5023297;28;20443;-60
2023/01/04 13:52:53;;;;;;;0.60;0.50;;;17.90;41.40;;;;;;5022376;28;20869;-60
2023/01/04 13:55:22;;;;;;;0.53;0.40;;;17.90;41.50;;;;;;5024115;28;20917;-60